KRYW

Lago Vista Tx - Rusty Allen Airport

Lago Vista, Texas, USA
METAR KRYW 170355Z AUTO 35006KT 3SM RA OVC002 09/09 A3024 RMK AO2 T00900090
Observed Flight Rules
Oct-17 @ 03:55 UTC (an hour ago) Instrument Flight Rules
Wind Visibility Clouds Conditions
350° at 6 knots 3 miles
  • Overcast at 200' AGL
  • Rain
Temperatures Readings
Current 9°C / 48°F
Dewpoint 9°C / 48°F
Humidity 100%
Altimeter 30.24" Hg
Pressure 1024 hPa
Elevation 376
METAR KRYW 170355Z AUTO 35006KT 3SM RA OVC002 09/09 A3024 RMK AO2 T00900090
Observed Flight Rules
Oct-17 @ 03:55 UTC
(an hour ago)
LIFR
Wind Visibility
350° at 6 knots 3 miles
Clouds
  • Overcast at 200' AGL
Conditions
  • Rain
Temperature Dewpoint
9°C / 48°F 9°C / 48°F
Humidity Altimeter Pressure
100% 30.24" Hg 1024 hPa